sensor_id;sensor_type;location;lat;lon;timestamp;pressure;altitude;pressure_sealevel;temperature;humidity
43488;BME280;29078;41.932;25.554;2023-01-28T00:00:05;98825.41;;;4.72;73.40
43488;BME280;29078;41.932;25.554;2023-01-28T00:02:34;98819.50;;;4.70;73.71
43488;BME280;29078;41.932;25.554;2023-01-28T00:05:00;98718.44;;;4.03;73.40
43488;BME280;29078;41.932;25.554;2023-01-28T00:07:26;98725.59;;;4.01;73.73
43488;BME280;29078;41.932;25.554;2023-01-28T00:09:51;98716.91;;;3.92;73.51
43488;BME280;29078;41.932;25.554;2023-01-28T00:12:17;98800.81;;;4.23;73.51
43488;BME280;29078;41.932;25.554;2023-01-28T00:14:43;98793.50;;;4.27;73.68
43488;BME280;29078;41.932;25.554;2023-01-28T00:17:11;98795.31;;;4.34;73.65
43488;BME280;29078;41.932;25.554;2023-01-28T00:19:36;98749.38;;;3.90;73.47
43488;BME280;29078;41.932;25.554;2023-01-28T00:22:02;98845.28;;;4.57;73.84
43488;BME280;29078;41.932;25.554;2023-01-28T00:24:28;98854.75;;;4.58;73.91
43488;BME280;29078;41.932;25.554;2023-01-28T00:26:54;98841.69;;;4.58;74.01
43488;BME280;29078;41.932;25.554;2023-01-28T00:29:19;98848.91;;;4.64;73.97
43488;BME280;29078;41.932;25.554;2023-01-28T00:31:44;98864.34;;;4.50;74.05
43488;BME280;29078;41.932;25.554;2023-01-28T00:34:10;98823.44;;;4.40;73.94
43488;BME280;29078;41.932;25.554;2023-01-28T00:36:35;98771.44;;;3.95;74.10
43488;BME280;29078;41.932;25.554;2023-01-28T00:39:04;98849.41;;;4.42;74.22
43488;BME280;29078;41.932;25.554;2023-01-28T00:41:30;98759.84;;;3.90;74.29
43488;BME280;29078;41.932;25.554;2023-01-28T00:43:55;98747.19;;;3.77;74.00
43488;BME280;29078;41.932;25.554;2023-01-28T00:46:21;98801.44;;;4.17;74.07
43488;BME280;29078;41.932;25.554;2023-01-28T00:48:47;98747.72;;;3.63;74.14
43488;BME280;29078;41.932;25.554;2023-01-28T00:51:15;98731.09;;;3.64;73.87
43488;BME280;29078;41.932;25.554;2023-01-28T00:53:42;98832.16;;;4.23;73.74
43488;BME280;29078;41.932;25.554;2023-01-28T00:56:12;98866.00;;;4.51;74.07
43488;BME280;29078;41.932;25.554;2023-01-28T00:58:37;98812.88;;;4.16;73.92
43488;BME280;29078;41.932;25.554;2023-01-28T01:01:11;98822.44;;;4.07;73.97
43488;BME280;29078;41.932;25.554;2023-01-28T01:03:37;98872.50;;;4.46;73.83
43488;BME280;29078;41.932;25.554;2023-01-28T01:06:03;98877.50;;;4.40;73.82
43488;BME280;29078;41.932;25.554;2023-01-28T01:08:29;98808.56;;;3.81;74.14
43488;BME280;29078;41.932;25.554;2023-01-28T01:11:03;98830.03;;;3.93;73.99
43488;BME280;29078;41.932;25.554;2023-01-28T01:13:29;98877.31;;;4.33;74.43
43488;BME280;29078;41.932;25.554;2023-01-28T01:16:06;98881.25;;;4.37;74.06
43488;BME280;29078;41.932;25.554;2023-01-28T01:18:32;98933.38;;;4.39;73.84
43488;BME280;29078;41.932;25.554;2023-01-28T01:20:59;98892.31;;;4.31;74.37
43488;BME280;29078;41.932;25.554;2023-01-28T01:23:26;98775.16;;;3.67;73.98
43488;BME280;29078;41.932;25.554;2023-01-28T01:25:52;98875.66;;;4.32;73.82
43488;BME280;29078;41.932;25.554;2023-01-28T01:28:17;98782.03;;;3.68;74.17
43488;BME280;29078;41.932;25.554;2023-01-28T01:30:43;98806.31;;;3.86;74.25
43488;BME280;29078;41.932;25.554;2023-01-28T01:33:08;98816.66;;;3.96;74.13
43488;BME280;29078;41.932;25.554;2023-01-28T01:35:34;98803.56;;;3.88;73.88
43488;BME280;29078;41.932;25.554;2023-01-28T01:37:59;98860.59;;;4.26;73.89
43488;BME280;29078;41.932;25.554;2023-01-28T01:40:24;98845.00;;;4.08;73.79
43488;BME280;29078;41.932;25.554;2023-01-28T01:42:50;98781.94;;;3.77;73.57
43488;BME280;29078;41.932;25.554;2023-01-28T01:45:15;98889.09;;;4.37;73.62
43488;BME280;29078;41.932;25.554;2023-01-28T01:48:19;98902.75;;;4.49;73.40
43488;BME280;29078;41.932;25.554;2023-01-28T01:50:50;98857.44;;;4.14;73.79
43488;BME280;29078;41.932;25.554;2023-01-28T01:53:18;98768.44;;;3.64;73.73
43488;BME280;29078;41.932;25.554;2023-01-28T01:55:47;98771.44;;;3.69;73.41
43488;BME280;29078;41.932;25.554;2023-01-28T01:58:16;98903.25;;;4.53;73.49
43488;BME280;29078;41.932;25.554;2023-01-28T02:00:42;98798.19;;;3.89;73.47
43488;BME280;29078;41.932;25.554;2023-01-28T02:03:10;98803.25;;;3.91;73.57
43488;BME280;29078;41.932;25.554;2023-01-28T02:05:36;98908.53;;;4.61;73.52
43488;BME280;29078;41.932;25.554;2023-01-28T02:08:02;98911.81;;;4.63;73.65
43488;BME280;29078;41.932;25.554;2023-01-28T02:11:07;98909.81;;;4.57;73.52
43488;BME280;29078;41.932;25.554;2023-01-28T02:13:39;98880.88;;;4.32;73.53
43488;BME280;29078;41.932;25.554;2023-01-28T02:16:06;98872.66;;;4.19;73.83
43488;BME280;29078;41.932;25.554;2023-01-28T02:18:32;98915.34;;;4.54;73.76
43488;BME280;29078;41.932;25.554;2023-01-28T02:31:42;98923.22;;;4.36;73.77
43488;BME280;29078;41.932;25.554;2023-01-28T02:39:37;98945.16;;;4.43;73.65
43488;BME280;29078;41.932;25.554;2023-01-28T02:42:23;98880.38;;;4.03;73.67
43488;BME280;29078;41.932;25.554;2023-01-28T02:44:51;98940.75;;;4.43;73.58
43488;BME280;29078;41.932;25.554;2023-01-28T02:47:16;98859.72;;;3.92;73.56
43488;BME280;29078;41.932;25.554;2023-01-28T02:50:03;98914.34;;;4.29;73.51
43488;BME280;29078;41.932;25.554;2023-01-28T02:58:05;98939.72;;;4.36;73.37
43488;BME280;29078;41.932;25.554;2023-01-28T03:03:27;98946.78;;;4.44;73.49
43488;BME280;29078;41.932;25.554;2023-01-28T03:06:02;98915.13;;;4.21;73.33
43488;BME280;29078;41.932;25.554;2023-01-28T03:08:53;98955.44;;;4.44;73.37
43488;BME280;29078;41.932;25.554;2023-01-28T03:11:40;98942.81;;;4.14;73.22
43488;BME280;29078;41.932;25.554;2023-01-28T03:14:25;98956.06;;;4.38;73.34
43488;BME280;29078;41.932;25.554;2023-01-28T03:17:37;98950.47;;;4.33;73.18
43488;BME280;29078;41.932;25.554;2023-01-28T03:20:26;98886.44;;;3.86;73.75
43488;BME280;29078;41.932;25.554;2023-01-28T03:23:16;98921.72;;;4.07;73.63
43488;BME280;29078;41.932;25.554;2023-01-28T03:26:02;98918.13;;;4.08;73.38
43488;BME280;29078;41.932;25.554;2023-01-28T03:28:53;98931.09;;;4.18;73.56
43488;BME280;29078;41.932;25.554;2023-01-28T03:31:39;98929.81;;;4.22;73.43
43488;BME280;29078;41.932;25.554;2023-01-28T03:34:23;98961.59;;;4.35;73.25
43488;BME280;29078;41.932;25.554;2023-01-28T03:37:08;98967.94;;;4.33;73.43
43488;BME280;29078;41.932;25.554;2023-01-28T03:39:34;98892.03;;;3.91;73.45
43488;BME280;29078;41.932;25.554;2023-01-28T03:42:01;98968.78;;;4.33;73.62
43488;BME280;29078;41.932;25.554;2023-01-28T03:44:27;98888.59;;;3.90;73.65
43488;BME280;29078;41.932;25.554;2023-01-28T03:47:11;98931.25;;;4.17;73.43
43488;BME280;29078;41.932;25.554;2023-01-28T03:49:47;98958.31;;;4.33;73.63
43488;BME280;29078;41.932;25.554;2023-01-28T03:52:14;98946.22;;;4.32;73.45
43488;BME280;29078;41.932;25.554;2023-01-28T03:54:40;98885.84;;;3.92;73.50
43488;BME280;29078;41.932;25.554;2023-01-28T03:57:06;98946.09;;;4.16;73.39
43488;BME280;29078;41.932;25.554;2023-01-28T03:59:32;98975.13;;;4.31;73.24
43488;BME280;29078;41.932;25.554;2023-01-28T04:01:58;98949.22;;;4.20;73.38
43488;BME280;29078;41.932;25.554;2023-01-28T04:04:23;98875.66;;;3.80;73.57
43488;BME280;29078;41.932;25.554;2023-01-28T04:06:53;98852.66;;;3.66;73.22
43488;BME280;29078;41.932;25.554;2023-01-28T04:09:22;98937.03;;;4.02;73.36
43488;BME280;29078;41.932;25.554;2023-01-28T04:11:48;98972.19;;;4.34;73.38
43488;BME280;29078;41.932;25.554;2023-01-28T04:14:18;98979.88;;;4.35;73.61
43488;BME280;29078;41.932;25.554;2023-01-28T04:16:43;98955.94;;;4.22;73.28
43488;BME280;29078;41.932;25.554;2023-01-28T04:19:09;98987.56;;;4.37;73.63
43488;BME280;29078;41.932;25.554;2023-01-28T04:21:37;98971.53;;;4.32;73.28
43488;BME280;29078;41.932;25.554;2023-01-28T04:24:02;98960.81;;;4.17;73.46
43488;BME280;29078;41.932;25.554;2023-01-28T04:26:28;98898.31;;;3.80;73.25
43488;BME280;29078;41.932;25.554;2023-01-28T04:28:53;98934.94;;;4.06;73.17
43488;BME280;29078;41.932;25.554;2023-01-28T04:31:19;99001.00;;;4.42;73.35
43488;BME280;29078;41.932;25.554;2023-01-28T04:33:44;98949.84;;;4.13;73.50
43488;BME280;29078;41.932;25.554;2023-01-28T04:36:10;99001.97;;;4.41;73.11
43488;BME280;29078;41.932;25.554;2023-01-28T04:38:35;98925.03;;;3.92;72.92
43488;BME280;29078;41.932;25.554;2023-01-28T04:41:00;98962.69;;;4.07;73.35
43488;BME280;29078;41.932;25.554;2023-01-28T04:43:26;98935.84;;;3.97;73.11
43488;BME280;29078;41.932;25.554;2023-01-28T04:45:51;98937.34;;;3.81;73.45
43488;BME280;29078;41.932;25.554;2023-01-28T04:48:17;98953.06;;;4.07;73.23
43488;BME280;29078;41.932;25.554;2023-01-28T04:50:43;98916.66;;;3.88;73.36
43488;BME280;29078;41.932;25.554;2023-01-28T04:53:10;99007.97;;;4.51;73.18
43488;BME280;29078;41.932;25.554;2023-01-28T04:55:35;98957.53;;;4.15;73.27
43488;BME280;29078;41.932;25.554;2023-01-28T04:58:01;99001.31;;;4.57;73.18
43488;BME280;29078;41.932;25.554;2023-01-28T05:00:26;98885.63;;;3.85;73.03
43488;BME280;29078;41.932;25.554;2023-01-28T05:02:52;98957.06;;;4.20;72.87
43488;BME280;29078;41.932;25.554;2023-01-28T05:05:17;99010.44;;;4.53;73.12
43488;BME280;29078;41.932;25.554;2023-01-28T05:07:46;99023.13;;;4.47;72.91
43488;BME280;29078;41.932;25.554;2023-01-28T05:10:14;99033.44;;;4.49;73.36
43488;BME280;29078;41.932;25.554;2023-01-28T05:12:40;98922.94;;;3.77;73.06
43488;BME280;29078;41.932;25.554;2023-01-28T05:15:08;99024.22;;;4.45;72.97
43488;BME280;29078;41.932;25.554;2023-01-28T05:17:33;98923.09;;;3.76;72.80
43488;BME280;29078;41.932;25.554;2023-01-28T05:19:58;99013.34;;;4.32;72.94
43488;BME280;29078;41.932;25.554;2023-01-28T05:22:24;98822.03;;;3.15;73.01
43488;BME280;29078;41.932;25.554;2023-01-28T05:24:49;98967.91;;;4.07;72.81
43488;BME280;29078;41.932;25.554;2023-01-28T05:27:15;99002.16;;;4.22;72.81
43488;BME280;29078;41.932;25.554;2023-01-28T05:29:40;98941.44;;;3.84;72.32
43488;BME280;29078;41.932;25.554;2023-01-28T05:32:05;98978.34;;;4.07;72.65
43488;BME280;29078;41.932;25.554;2023-01-28T05:34:31;98796.38;;;2.93;72.61
43488;BME280;29078;41.932;25.554;2023-01-28T05:36:56;99010.59;;;4.33;72.49
43488;BME280;29078;41.932;25.554;2023-01-28T05:39:21;98976.63;;;4.15;72.80
43488;BME280;29078;41.932;25.554;2023-01-28T05:41:47;99002.88;;;4.32;72.49
43488;BME280;29078;41.932;25.554;2023-01-28T05:44:12;99048.28;;;4.66;72.42
43488;BME280;29078;41.932;25.554;2023-01-28T05:46:38;99073.44;;;4.67;72.56
43488;BME280;29078;41.932;25.554;2023-01-28T05:49:09;99011.25;;;4.35;72.58
43488;BME280;29078;41.932;25.554;2023-01-28T05:51:38;98967.53;;;4.02;72.54
43488;BME280;29078;41.932;25.554;2023-01-28T05:54:04;98977.16;;;4.01;72.06
43488;BME280;29078;41.932;25.554;2023-01-28T05:56:29;99017.44;;;4.34;72.56
43488;BME280;29078;41.932;25.554;2023-01-28T05:58:55;99011.19;;;4.27;72.22
43488;BME280;29078;41.932;25.554;2023-01-28T06:01:20;99038.28;;;4.44;72.42
43488;BME280;29078;41.932;25.554;2023-01-28T06:03:45;98785.56;;;2.87;72.09
43488;BME280;29078;41.932;25.554;2023-01-28T06:06:11;99026.94;;;4.18;71.86
43488;BME280;29078;41.932;25.554;2023-01-28T06:08:36;98971.56;;;3.96;71.93
43488;BME280;29078;41.932;25.554;2023-01-28T06:11:02;99113.84;;;4.73;71.96
43488;BME280;29078;41.932;25.554;2023-01-28T06:13:27;98970.00;;;4.03;71.71
43488;BME280;29078;41.932;25.554;2023-01-28T06:15:52;99025.28;;;4.34;71.84
43488;BME280;29078;41.932;25.554;2023-01-28T06:18:18;98959.13;;;3.90;71.78
43488;BME280;29078;41.932;25.554;2023-01-28T06:20:43;99074.34;;;4.58;71.75
43488;BME280;29078;41.932;25.554;2023-01-28T06:23:09;99108.03;;;4.79;71.77
43488;BME280;29078;41.932;25.554;2023-01-28T06:25:34;98990.69;;;3.97;71.75
43488;BME280;29078;41.932;25.554;2023-01-28T06:27:59;99029.25;;;4.21;71.53
43488;BME280;29078;41.932;25.554;2023-01-28T06:30:25;98960.06;;;3.71;71.56
43488;BME280;29078;41.932;25.554;2023-01-28T06:32:55;99041.88;;;4.25;71.64
43488;BME280;29078;41.932;25.554;2023-01-28T06:35:21;99086.41;;;4.51;71.57
43488;BME280;29078;41.932;25.554;2023-01-28T06:37:47;99058.97;;;4.37;71.41
43488;BME280;29078;41.932;25.554;2023-01-28T06:40:12;99102.50;;;4.64;71.58
43488;BME280;29078;41.932;25.554;2023-01-28T06:42:38;99073.47;;;4.50;71.59
43488;BME280;29078;41.932;25.554;2023-01-28T06:45:03;99104.97;;;4.66;71.56
43488;BME280;29078;41.932;25.554;2023-01-28T06:47:29;98983.59;;;3.89;71.75
43488;BME280;29078;41.932;25.554;2023-01-28T06:49:54;99103.88;;;4.51;71.39
43488;BME280;29078;41.932;25.554;2023-01-28T06:52:20;99054.41;;;4.22;71.44
43488;BME280;29078;41.932;25.554;2023-01-28T06:54:45;99044.78;;;4.22;71.61
43488;BME280;29078;41.932;25.554;2023-01-28T06:57:10;99086.75;;;4.56;71.60
43488;BME280;29078;41.932;25.554;2023-01-28T06:59:36;99153.44;;;4.96;71.42
43488;BME280;29078;41.932;25.554;2023-01-28T07:02:01;99150.66;;;4.97;71.48
43488;BME280;29078;41.932;25.554;2023-01-28T07:04:26;99108.13;;;4.69;71.57
43488;BME280;29078;41.932;25.554;2023-01-28T07:06:52;99131.63;;;4.87;71.19
43488;BME280;29078;41.932;25.554;2023-01-28T07:09:17;99181.31;;;5.05;71.28
43488;BME280;29078;41.932;25.554;2023-01-28T07:11:43;99117.91;;;4.67;71.24
43488;BME280;29078;41.932;25.554;2023-01-28T07:14:08;99085.06;;;4.47;70.99
43488;BME280;29078;41.932;25.554;2023-01-28T07:16:33;99191.78;;;5.05;71.02
43488;BME280;29078;41.932;25.554;2023-01-28T07:18:59;99069.72;;;4.34;70.55
43488;BME280;29078;41.932;25.554;2023-01-28T07:21:24;99127.91;;;4.72;70.91
43488;BME280;29078;41.932;25.554;2023-01-28T07:23:50;99108.13;;;4.52;70.69
43488;BME280;29078;41.932;25.554;2023-01-28T07:26:15;99158.59;;;4.88;71.24
43488;BME280;29078;41.932;25.554;2023-01-28T07:28:40;99156.22;;;4.76;70.96
43488;BME280;29078;41.932;25.554;2023-01-28T07:31:06;99119.19;;;4.63;71.02
43488;BME280;29078;41.932;25.554;2023-01-28T07:33:31;99176.22;;;5.03;70.67
43488;BME280;29078;41.932;25.554;2023-01-28T07:35:57;99068.28;;;4.40;70.64
43488;BME280;29078;41.932;25.554;2023-01-28T07:38:22;99098.56;;;4.60;70.76
43488;BME280;29078;41.932;25.554;2023-01-28T07:40:47;99184.91;;;5.22;71.01
43488;BME280;29078;41.932;25.554;2023-01-28T07:43:13;99114.59;;;4.83;70.67
43488;BME280;29078;41.932;25.554;2023-01-28T07:45:38;99150.41;;;5.08;70.08
43488;BME280;29078;41.932;25.554;2023-01-28T07:48:06;99165.16;;;5.09;70.00
43488;BME280;29078;41.932;25.554;2023-01-28T07:50:34;99152.91;;;4.92;69.79
43488;BME280;29078;41.932;25.554;2023-01-28T07:53:06;99194.09;;;5.26;70.18
43488;BME280;29078;41.932;25.554;2023-01-28T07:55:32;99195.78;;;5.17;69.90
43488;BME280;29078;41.932;25.554;2023-01-28T07:58:00;99149.47;;;4.92;69.62
43488;BME280;29078;41.932;25.554;2023-01-28T08:00:29;99214.47;;;5.40;69.81
43488;BME280;29078;41.932;25.554;2023-01-28T08:02:56;99219.41;;;5.43;69.56
43488;BME280;29078;41.932;25.554;2023-01-28T08:05:22;99122.59;;;4.82;68.95
43488;BME280;29078;41.932;25.554;2023-01-28T08:07:48;99225.97;;;5.47;69.54
43488;BME280;29078;41.932;25.554;2023-01-28T08:10:14;99234.34;;;5.51;69.21
43488;BME280;29078;41.932;25.554;2023-01-28T08:12:50;99228.81;;;5.54;68.86
43488;BME280;29078;41.932;25.554;2023-01-28T08:15:15;99098.16;;;4.73;68.76
43488;BME280;29078;41.932;25.554;2023-01-28T08:17:40;99177.19;;;5.20;68.94
43488;BME280;29078;41.932;25.554;2023-01-28T08:20:06;99181.47;;;5.21;68.94
43488;BME280;29078;41.932;25.554;2023-01-28T08:22:32;99252.78;;;5.67;68.86
43488;BME280;29078;41.932;25.554;2023-01-28T08:24:57;99190.19;;;5.30;68.69
43488;BME280;29078;41.932;25.554;2023-01-28T08:27:23;99240.31;;;5.61;68.94
43488;BME280;29078;41.932;25.554;2023-01-28T08:29:48;99149.69;;;4.98;69.10
43488;BME280;29078;41.932;25.554;2023-01-28T08:32:13;99189.22;;;5.31;68.82
43488;BME280;29078;41.932;25.554;2023-01-28T08:34:39;99190.56;;;5.35;69.25
43488;BME280;29078;41.932;25.554;2023-01-28T08:37:04;99242.97;;;5.69;68.97
43488;BME280;29078;41.932;25.554;2023-01-28T08:39:30;99249.75;;;5.80;69.51
43488;BME280;29078;41.932;25.554;2023-01-28T08:41:55;99180.06;;;5.35;70.08
43488;BME280;29078;41.932;25.554;2023-01-28T08:44:21;99199.94;;;5.46;69.21
43488;BME280;29078;41.932;25.554;2023-01-28T08:46:46;99168.88;;;5.25;69.40
43488;BME280;29078;41.932;25.554;2023-01-28T08:49:12;99248.16;;;5.87;68.86
43488;BME280;29078;41.932;25.554;2023-01-28T08:51:37;99223.81;;;5.68;68.60
43488;BME280;29078;41.932;25.554;2023-01-28T08:54:02;99221.53;;;5.91;68.52
43488;BME280;29078;41.932;25.554;2023-01-28T08:56:28;99269.66;;;6.16;68.33
43488;BME280;29078;41.932;25.554;2023-01-28T08:58:54;99202.59;;;5.80;67.88
43488;BME280;29078;41.932;25.554;2023-01-28T09:01:20;99154.19;;;5.58;68.42
43488;BME280;29078;41.932;25.554;2023-01-28T09:03:45;99177.50;;;5.69;68.15
43488;BME280;29078;41.932;25.554;2023-01-28T09:06:10;99262.34;;;6.28;67.58
43488;BME280;29078;41.932;25.554;2023-01-28T09:08:36;99160.13;;;5.68;67.64
43488;BME280;29078;41.932;25.554;2023-01-28T09:11:01;99145.53;;;5.57;67.51
43488;BME280;29078;41.932;25.554;2023-01-28T09:13:27;99250.75;;;6.38;67.46
43488;BME280;29078;41.932;25.554;2023-01-28T09:15:52;99234.97;;;6.22;67.45
43488;BME280;29078;41.932;25.554;2023-01-28T09:18:18;99226.78;;;6.25;67.51
43488;BME280;29078;41.932;25.554;2023-01-28T09:20:44;99158.06;;;5.80;67.05
43488;BME280;29078;41.932;25.554;2023-01-28T09:23:10;99252.59;;;6.46;66.57
43488;BME280;29078;41.932;25.554;2023-01-28T09:25:36;99154.63;;;5.79;67.15
43488;BME280;29078;41.932;25.554;2023-01-28T09:28:02;99255.91;;;6.56;67.08
43488;BME280;29078;41.932;25.554;2023-01-28T09:30:28;99198.19;;;6.06;66.48
43488;BME280;29078;41.932;25.554;2023-01-28T09:32:54;99251.75;;;6.46;66.97
43488;BME280;29078;41.932;25.554;2023-01-28T09:35:20;99248.81;;;6.49;66.27
43488;BME280;29078;41.932;25.554;2023-01-28T09:37:46;99164.16;;;5.88;66.26
43488;BME280;29078;41.932;25.554;2023-01-28T09:40:34;99159.91;;;5.87;66.02
43488;BME280;29078;41.932;25.554;2023-01-28T09:43:21;99246.66;;;6.44;66.42
43488;BME280;29078;41.932;25.554;2023-01-28T09:45:51;99224.88;;;6.44;66.65
43488;BME280;29078;41.932;25.554;2023-01-28T09:48:22;99241.16;;;6.63;66.71
43488;BME280;29078;41.932;25.554;2023-01-28T09:50:51;99229.66;;;6.56;65.92
43488;BME280;29078;41.932;25.554;2023-01-28T09:55:45;99154.81;;;6.12;65.29
43488;BME280;29078;41.932;25.554;2023-01-28T09:58:14;99227.84;;;6.49;64.46
43488;BME280;29078;41.932;25.554;2023-01-28T10:03:38;99241.22;;;6.72;64.34
43488;BME280;29078;41.932;25.554;2023-01-28T10:11:47;99240.91;;;6.83;64.09
43488;BME280;29078;41.932;25.554;2023-01-28T10:14:48;99206.78;;;6.83;64.14
43488;BME280;29078;41.932;25.554;2023-01-28T10:20:07;99237.16;;;7.18;63.13
43488;BME280;29078;41.932;25.554;2023-01-28T10:22:46;99226.97;;;7.23;63.12
43488;BME280;29078;41.932;25.554;2023-01-28T10:25:19;99235.53;;;7.33;63.39
43488;BME280;29078;41.932;25.554;2023-01-28T10:27:46;99186.28;;;7.03;62.82
43488;BME280;29078;41.932;25.554;2023-01-28T10:30:18;99233.88;;;7.40;62.58
43488;BME280;29078;41.932;25.554;2023-01-28T10:33:04;99237.97;;;7.34;61.73
43488;BME280;29078;41.932;25.554;2023-01-28T10:35:40;99228.63;;;7.40;62.18
43488;BME280;29078;41.932;25.554;2023-01-28T10:38:09;99221.72;;;7.39;61.66
43488;BME280;29078;41.932;25.554;2023-01-28T10:40:40;99213.03;;;7.30;61.73
43488;BME280;29078;41.932;25.554;2023-01-28T10:43:06;99162.84;;;7.01;61.31
43488;BME280;29078;41.932;25.554;2023-01-28T10:45:40;99165.63;;;7.08;60.45
43488;BME280;29078;41.932;25.554;2023-01-28T10:48:13;99149.72;;;6.93;61.40
43488;BME280;29078;41.932;25.554;2023-01-28T10:50:53;99176.44;;;6.96;60.15
43488;BME280;29078;41.932;25.554;2023-01-28T10:53:38;99224.84;;;7.18;61.09
43488;BME280;29078;41.932;25.554;2023-01-28T10:56:08;99233.22;;;7.38;61.70
43488;BME280;29078;41.932;25.554;2023-01-28T10:59:06;99223.69;;;7.29;61.33
43488;BME280;29078;41.932;25.554;2023-01-28T11:04:27;99110.53;;;6.75;61.49
43488;BME280;29078;41.932;25.554;2023-01-28T11:07:02;99206.47;;;7.34;61.08
43488;BME280;29078;41.932;25.554;2023-01-28T11:09:33;99237.19;;;7.50;61.28
43488;BME280;29078;41.932;25.554;2023-01-28T11:12:13;99229.78;;;7.46;60.08
43488;BME280;29078;41.932;25.554;2023-01-28T11:17:20;99251.78;;;7.61;61.17
43488;BME280;29078;41.932;25.554;2023-01-28T11:19:49;99185.94;;;7.30;61.34
43488;BME280;29078;41.932;25.554;2023-01-28T11:22:38;99207.28;;;7.35;61.19
43488;BME280;29078;41.932;25.554;2023-01-28T11:25:35;99223.38;;;7.48;59.93
43488;BME280;29078;41.932;25.554;2023-01-28T11:28:07;99160.69;;;7.13;60.94
43488;BME280;29078;41.932;25.554;2023-01-28T11:30:40;99194.97;;;7.27;60.59
43488;BME280;29078;41.932;25.554;2023-01-28T11:33:18;99232.06;;;7.65;60.55
43488;BME280;29078;41.932;25.554;2023-01-28T11:38:56;99228.13;;;7.69;59.38
43488;BME280;29078;41.932;25.554;2023-01-28T11:41:28;99183.50;;;7.28;59.80
43488;BME280;29078;41.932;25.554;2023-01-28T11:43:54;99177.41;;;7.28;59.53
43488;BME280;29078;41.932;25.554;2023-01-28T11:49:24;99238.16;;;7.57;57.20
43488;BME280;29078;41.932;25.554;2023-01-28T12:10:21;99239.38;;;7.94;57.74
43488;BME280;29078;41.932;25.554;2023-01-28T12:13:03;99232.84;;;7.82;58.36
43488;BME280;29078;41.932;25.554;2023-01-28T12:15:57;99239.41;;;7.86;58.34
43488;BME280;29078;41.932;25.554;2023-01-28T12:41:28;99249.25;;;7.92;57.46
43488;BME280;29078;41.932;25.554;2023-01-28T12:44:00;99244.97;;;7.99;56.78
43488;BME280;29078;41.932;25.554;2023-01-28T12:46:48;99125.88;;;7.35;56.58
43488;BME280;29078;41.932;25.554;2023-01-28T12:57:20;99256.59;;;8.13;56.13
43488;BME280;29078;41.932;25.554;2023-01-28T12:59:53;99193.44;;;7.74;56.95
43488;BME280;29078;41.932;25.554;2023-01-28T13:02:34;99231.81;;;7.99;56.63
43488;BME280;29078;41.932;25.554;2023-01-28T13:05:14;99243.69;;;7.87;56.13
43488;BME280;29078;41.932;25.554;2023-01-28T13:07:55;99272.22;;;8.06;56.79
43488;BME280;29078;41.932;25.554;2023-01-28T13:10:36;99228.91;;;7.78;56.51
43488;BME280;29078;41.932;25.554;2023-01-28T13:13:04;99191.69;;;7.50;56.65
43488;BME280;29078;41.932;25.554;2023-01-28T13:15:30;99277.66;;;7.96;57.38
43488;BME280;29078;41.932;25.554;2023-01-28T13:18:00;99284.38;;;8.07;57.56
43488;BME280;29078;41.932;25.554;2023-01-28T13:20:46;99285.69;;;8.11;57.77
43488;BME280;29078;41.932;25.554;2023-01-28T13:23:45;99289.31;;;8.10;57.44
43488;BME280;29078;41.932;25.554;2023-01-28T13:26:26;99288.97;;;8.05;57.17
43488;BME280;29078;41.932;25.554;2023-01-28T13:28:53;99248.31;;;7.77;58.03
43488;BME280;29078;41.932;25.554;2023-01-28T13:31:36;99194.97;;;7.36;57.28
43488;BME280;29078;41.932;25.554;2023-01-28T13:34:04;99232.75;;;7.51;57.42
43488;BME280;29078;41.932;25.554;2023-01-28T13:36:37;99277.88;;;7.71;56.98
43488;BME280;29078;41.932;25.554;2023-01-28T13:39:14;99303.16;;;7.88;57.34
43488;BME280;29078;41.932;25.554;2023-01-28T13:41:47;99262.28;;;7.61;57.52
43488;BME280;29078;41.932;25.554;2023-01-28T13:46:46;99251.59;;;7.38;58.07
43488;BME280;29078;41.932;25.554;2023-01-28T13:49:16;99209.25;;;7.09;57.77
43488;BME280;29078;41.932;25.554;2023-01-28T13:55:16;99288.88;;;7.50;57.61
43488;BME280;29078;41.932;25.554;2023-01-28T13:58:16;99316.63;;;7.69;58.41
43488;BME280;29078;41.932;25.554;2023-01-28T14:17:47;99338.91;;;7.32;59.28
43488;BME280;29078;41.932;25.554;2023-01-28T14:20:35;99322.47;;;7.14;57.73
43488;BME280;29078;41.932;25.554;2023-01-28T14:23:05;99342.34;;;7.16;58.82
43488;BME280;29078;41.932;25.554;2023-01-28T14:31:29;99353.66;;;7.17;59.29
43488;BME280;29078;41.932;25.554;2023-01-28T14:34:08;99285.97;;;6.70;59.70
43488;BME280;29078;41.932;25.554;2023-01-28T14:36:42;99317.13;;;6.73;59.94
43488;BME280;29078;41.932;25.554;2023-01-28T14:39:25;99365.00;;;7.17;60.25
43488;BME280;29078;41.932;25.554;2023-01-28T14:41:52;99368.13;;;7.21;60.13
43488;BME280;29078;41.932;25.554;2023-01-28T14:44:30;99368.13;;;7.21;59.56
43488;BME280;29078;41.932;25.554;2023-01-28T14:58:22;99344.03;;;6.75;59.60
43488;BME280;29078;41.932;25.554;2023-01-28T15:00:55;99386.19;;;6.82;59.18
43488;BME280;29078;41.932;25.554;2023-01-28T15:03:21;99374.88;;;6.81;59.28
43488;BME280;29078;41.932;25.554;2023-01-28T15:05:46;99402.16;;;6.96;59.02
43488;BME280;29078;41.932;25.554;2023-01-28T15:08:20;99395.59;;;6.92;59.98
43488;BME280;29078;41.932;25.554;2023-01-28T15:10:46;99235.88;;;5.87;59.32
43488;BME280;29078;41.932;25.554;2023-01-28T15:13:25;99412.94;;;6.85;60.01
43488;BME280;29078;41.932;25.554;2023-01-28T15:15:52;99401.78;;;6.83;59.87
43488;BME280;29078;41.932;25.554;2023-01-28T15:18:36;99395.69;;;6.75;59.77
43488;BME280;29078;41.932;25.554;2023-01-28T15:21:04;99316.88;;;6.24;59.88
43488;BME280;29078;41.932;25.554;2023-01-28T15:23:35;99379.53;;;6.61;60.10
43488;BME280;29078;41.932;25.554;2023-01-28T15:26:43;99420.78;;;6.77;60.01
43488;BME280;29078;41.932;25.554;2023-01-28T15:29:40;99424.75;;;6.81;60.16
43488;BME280;29078;41.932;25.554;2023-01-28T15:32:05;99317.94;;;6.05;60.44
43488;BME280;29078;41.932;25.554;2023-01-28T15:34:31;99406.88;;;6.59;60.30